Time;durP1;ratioP1;P1;durP2;ratioP2;P2;SDS_P1;SDS_P2;PMS_P1;PMS_P2;Temp;Humidity;BMP_temperature;BMP_pressure;BME280_temperature;BME280_humidity;BME280_pressure;Samples;Min_cycle;Max_cycle;Signal;HPM_P1;HPM_P2
2021/03/29 00:01:47;;;;;;;16.60;5.78;;;;;;;;;;5050237;28;20028;-64
2021/03/29 00:04:12;;;;;;;28.85;5.32;;;;;;;;;;5050017;28;20025;-64
2021/03/29 00:06:38;;;;;;;17.92;5.30;;;;;;;;;;5050361;28;20070;-64
2021/03/29 00:09:03;;;;;;;22.10;6.05;;;;;;;;;;5049532;28;20377;-65
2021/03/29 00:11:29;;;;;;;23.33;6.20;;;;;;;;;;5048757;28;20031;-64
2021/03/29 00:13:55;;;;;;;20.55;4.90;;;;;;;;;;5049054;28;20024;-64
2021/03/29 00:16:21;;;;;;;20.92;5.68;;;;;;;;;;5049593;28;20025;-64
2021/03/29 00:18:47;;;;;;;25.40;4.95;;;;;;;;;;5049584;28;20120;-64
2021/03/29 00:21:12;;;;;;;14.10;4.97;;;;;;;;;;5049331;28;20100;-64
2021/03/29 00:23:37;;;;;;;22.30;5.70;;;;;;;;;;5049647;28;20029;-64
2021/03/29 00:26:04;;;;;;;22.30;5.65;;;;;;;;;;5049186;28;20017;-64
2021/03/29 00:28:29;;;;;;;16.27;4.63;;;;;;;;;;5049467;28;20032;-64
2021/03/29 00:30:55;;;;;;;16.43;5.33;;;;;;;;;;5049466;28;20029;-64
2021/03/29 00:33:21;;;;;;;17.27;5.68;;;;;;;;;;5049637;28;20305;-64
2021/03/29 00:35:47;;;;;;;23.30;5.47;;;;;;;;;;5049676;28;20075;-64
2021/03/29 00:38:14;;;;;;;18.63;5.55;;;;;;;;;;5049805;28;20104;-64
2021/03/29 00:40:42;;;;;;;19.58;5.38;;;;;;;;;;5049480;28;20382;-65
2021/03/29 00:43:11;;;;;;;20.88;5.28;;;;;;;;;;5049455;28;20028;-64
2021/03/29 00:45:37;;;;;;;15.73;5.13;;;;;;;;;;5048688;28;20481;-64
2021/03/29 00:48:02;;;;;;;16.30;5.38;;;;;;;;;;5049793;28;20032;-64
2021/03/29 00:50:31;;;;;;;20.52;4.80;;;;;;;;;;5050489;28;20056;-64
2021/03/29 00:52:56;;;;;;;12.05;4.97;;;;;;;;;;5053347;28;20028;-64
2021/03/29 00:55:22;;;;;;;17.63;5.18;;;;;;;;;;5053469;28;20028;-64
2021/03/29 00:57:48;;;;;;;21.35;5.40;;;;;;;;;;5052061;28;20021;-64
2021/03/29 01:00:36;;;;;;;21.42;5.63;;;;;;;;;;5053130;28;20052;-63
2021/03/29 01:03:01;;;;;;;18.73;5.22;;;;;;;;;;5053668;28;20013;-64
2021/03/29 01:05:27;;;;;;;23.17;6.60;;;;;;;;;;5052980;28;20047;-63
2021/03/29 01:07:53;;;;;;;18.60;4.90;;;;;;;;;;5052402;28;20021;-65
2021/03/29 01:10:19;;;;;;;10.75;5.05;;;;;;;;;;5053283;28;20028;-63
2021/03/29 01:12:45;;;;;;;20.02;5.78;;;;;;;;;;5052132;28;20025;-64
2021/03/29 01:15:12;;;;;;;22.10;5.70;;;;;;;;;;5053409;28;20489;-64
2021/03/29 01:17:39;;;;;;;16.58;5.00;;;;;;;;;;5052254;28;20024;-64
2021/03/29 01:20:04;;;;;;;16.08;5.88;;;;;;;;;;5053142;28;20346;-64
2021/03/29 01:22:34;;;;;;;12.90;4.40;;;;;;;;;;5053117;28;20016;-64
2021/03/29 01:25:09;;;;;;;28.67;5.13;;;;;;;;;;5053142;28;20619;-64
2021/03/29 01:27:36;;;;;;;23.08;6.18;;;;;;;;;;5052329;28;20481;-64
2021/03/29 01:30:03;;;;;;;15.75;4.53;;;;;;;;;;5052432;28;20115;-63
2021/03/29 01:32:29;;;;;;;21.80;5.70;;;;;;;;;;5052929;28;20406;-65
2021/03/29 01:34:56;;;;;;;25.25;5.07;;;;;;;;;;5052618;28;20025;-64
2021/03/29 01:37:22;;;;;;;27.33;5.57;;;;;;;;;;5052497;28;20669;-64
2021/03/29 01:39:48;;;;;;;10.13;3.60;;;;;;;;;;5052323;28;20029;-64
2021/03/29 01:42:13;;;;;;;15.15;4.60;;;;;;;;;;5052316;28;20033;-64
2021/03/29 01:44:39;;;;;;;17.55;5.57;;;;;;;;;;5052726;28;20151;-63
2021/03/29 01:47:05;;;;;;;16.65;5.40;;;;;;;;;;5051953;28;20032;-64
2021/03/29 01:49:31;;;;;;;15.18;5.13;;;;;;;;;;5052236;28;20121;-64
2021/03/29 01:51:56;;;;;;;14.80;4.60;;;;;;;;;;5052292;28;20115;-64
2021/03/29 01:54:22;;;;;;;24.77;6.10;;;;;;;;;;5052242;28;20318;-65
2021/03/29 01:56:47;;;;;;;19.42;5.30;;;;;;;;;;5051259;28;20025;-64
2021/03/29 01:59:13;;;;;;;19.38;5.50;;;;;;;;;;5052062;28;20032;-64
2021/03/29 02:01:38;;;;;;;18.58;4.78;;;;;;;;;;5051151;28;20032;-64
2021/03/29 02:04:04;;;;;;;18.70;4.80;;;;;;;;;;5051384;28;20032;-64
2021/03/29 02:06:29;;;;;;;19.50;5.45;;;;;;;;;;5052565;28;20024;-64
2021/03/29 02:08:55;;;;;;;15.45;4.70;;;;;;;;;;5051870;28;20121;-64
2021/03/29 02:11:22;;;;;;;21.35;5.25;;;;;;;;;;5050158;28;20156;-64
2021/03/29 02:13:49;;;;;;;21.17;5.18;;;;;;;;;;5050943;28;20441;-64
2021/03/29 02:16:15;;;;;;;17.83;6.43;;;;;;;;;;5051026;28;20023;-64
2021/03/29 02:18:53;;;;;;;21.73;5.85;;;;;;;;;;5050980;28;20100;-64
2021/03/29 02:21:20;;;;;;;23.73;5.57;;;;;;;;;;5052491;28;20115;-64
2021/03/29 02:23:48;;;;;;;29.40;6.05;;;;;;;;;;5051675;28;20021;-64
2021/03/29 02:26:16;;;;;;;22.75;6.05;;;;;;;;;;5051655;28;20021;-64
2021/03/29 02:28:41;;;;;;;20.45;5.15;;;;;;;;;;5050960;28;20466;-64
2021/03/29 02:31:07;;;;;;;20.88;5.65;;;;;;;;;;5052123;28;20036;-64
2021/03/29 02:33:32;;;;;;;18.75;5.47;;;;;;;;;;5050723;28;20553;-64
2021/03/29 02:35:58;;;;;;;28.55;6.10;;;;;;;;;;5038138;28;20021;-63
2021/03/29 02:38:23;;;;;;;18.70;4.85;;;;;;;;;;5049412;28;20021;-64
2021/03/29 02:40:50;;;;;;;16.67;4.85;;;;;;;;;;5070450;23;20037;-65
2021/03/29 02:43:16;;;;;;;16.90;5.68;;;;;;;;;;5038424;28;20029;-65
2021/03/29 02:45:43;;;;;;;25.00;5.45;;;;;;;;;;5035278;28;20060;-65
2021/03/29 02:48:10;;;;;;;14.13;4.60;;;;;;;;;;5051082;28;20033;-66
2021/03/29 02:50:37;;;;;;;14.65;4.85;;;;;;;;;;5044217;28;20487;-65
2021/03/29 02:53:04;;;;;;;21.85;6.00;;;;;;;;;;5037206;28;20363;-66
2021/03/29 02:55:31;;;;;;;19.83;4.43;;;;;;;;;;5045238;28;20461;-65
2021/03/29 02:57:57;;;;;;;24.38;6.18;;;;;;;;;;5046475;28;20029;-66
2021/03/29 03:00:24;;;;;;;20.63;5.43;;;;;;;;;;5050640;28;20021;-65
2021/03/29 03:02:50;;;;;;;22.52;5.65;;;;;;;;;;5050485;28;20021;-65
2021/03/29 03:05:15;;;;;;;24.27;6.05;;;;;;;;;;5050324;28;20016;-65
2021/03/29 03:07:41;;;;;;;19.13;5.72;;;;;;;;;;5044316;28;20052;-68
2021/03/29 03:10:11;;;;;;;21.60;6.60;;;;;;;;;;5044087;28;20021;-65
2021/03/29 03:12:39;;;;;;;21.95;6.35;;;;;;;;;;5043505;28;20057;-65
2021/03/29 03:15:06;;;;;;;20.55;5.32;;;;;;;;;;5038530;28;20465;-65
2021/03/29 03:17:32;;;;;;;20.85;5.90;;;;;;;;;;5037199;28;20079;-66
2021/03/29 03:19:57;;;;;;;23.77;5.68;;;;;;;;;;5041739;28;20385;-65
2021/03/29 03:22:22;;;;;;;23.43;6.10;;;;;;;;;;5040808;28;20025;-66
2021/03/29 03:24:48;;;;;;;22.55;6.72;;;;;;;;;;5050425;28;20274;-65
2021/03/29 03:27:13;;;;;;;21.80;5.85;;;;;;;;;;5047087;28;20474;-65
2021/03/29 03:29:39;;;;;;;24.67;5.82;;;;;;;;;;5048813;28;20025;-65
2021/03/29 03:32:05;;;;;;;18.92;5.50;;;;;;;;;;5048649;28;20021;-66
2021/03/29 03:34:30;;;;;;;20.35;5.82;;;;;;;;;;5040216;28;20433;-66
2021/03/29 03:36:55;;;;;;;17.40;4.90;;;;;;;;;;5041539;28;20037;-65
2021/03/29 03:39:21;;;;;;;20.48;5.47;;;;;;;;;;5051134;28;20091;-65
2021/03/29 03:41:46;;;;;;;19.95;4.80;;;;;;;;;;5048709;28;20481;-66
2021/03/29 03:44:13;;;;;;;11.75;3.30;;;;;;;;;;5033693;28;20032;-65
2021/03/29 03:46:40;;;;;;;14.48;4.55;;;;;;;;;;5035831;28;20056;-64
2021/03/29 03:49:08;;;;;;;20.23;4.90;;;;;;;;;;5036404;28;20051;-65
2021/03/29 03:51:33;;;;;;;19.35;5.40;;;;;;;;;;5046625;28;20029;-65
2021/03/29 03:54:00;;;;;;;21.08;5.80;;;;;;;;;;5047338;28;20021;-67
2021/03/29 03:56:25;;;;;;;17.98;5.15;;;;;;;;;;5048423;28;20500;-65
2021/03/29 03:58:52;;;;;;;27.40;5.78;;;;;;;;;;5041992;28;20053;-65
2021/03/29 04:01:17;;;;;;;18.27;5.57;;;;;;;;;;5035515;28;20014;-65
2021/03/29 04:03:43;;;;;;;16.10;4.55;;;;;;;;;;5041477;28;20462;-66
2021/03/29 04:06:08;;;;;;;18.30;4.65;;;;;;;;;;5050186;28;20024;-65
2021/03/29 04:08:33;;;;;;;27.00;5.78;;;;;;;;;;5045837;28;20028;-65
2021/03/29 04:11:00;;;;;;;21.48;5.72;;;;;;;;;;5048848;28;20028;-64
2021/03/29 04:15:50;;;;;;;23.73;4.25;;;;;;;;;;5043175;28;20033;-65
2021/03/29 04:18:16;;;;;;;21.13;4.75;;;;;;;;;;5039436;28;20016;-65
2021/03/29 04:20:42;;;;;;;16.58;4.60;;;;;;;;;;5041561;28;20029;-65
2021/03/29 04:23:07;;;;;;;14.88;4.47;;;;;;;;;;5040293;28;20123;-66
2021/03/29 04:25:32;;;;;;;24.35;5.38;;;;;;;;;;5048250;28;20028;-65
2021/03/29 04:27:57;;;;;;;15.63;4.72;;;;;;;;;;5039676;28;20022;-65
2021/03/29 04:30:23;;;;;;;24.65;5.63;;;;;;;;;;5047742;28;20032;-65
2021/03/29 04:32:48;;;;;;;16.15;4.30;;;;;;;;;;5041239;28;20140;-66
2021/03/29 04:35:16;;;;;;;13.18;5.15;;;;;;;;;;5040317;28;20052;-65
2021/03/29 04:37:41;;;;;;;20.63;4.90;;;;;;;;;;5042370;28;20040;-65
2021/03/29 04:40:07;;;;;;;15.50;4.25;;;;;;;;;;5043979;28;20033;-65
2021/03/29 04:42:32;;;;;;;15.15;5.15;;;;;;;;;;5045255;28;20025;-64
2021/03/29 04:44:57;;;;;;;21.98;5.35;;;;;;;;;;5050381;28;20079;-65
2021/03/29 04:47:22;;;;;;;13.65;5.03;;;;;;;;;;5046544;28;20025;-66
2021/03/29 04:49:48;;;;;;;19.38;4.63;;;;;;;;;;5041006;28;20021;-65
2021/03/29 04:52:13;;;;;;;18.17;3.95;;;;;;;;;;5038747;28;20040;-66
2021/03/29 04:54:38;;;;;;;8.40;3.80;;;;;;;;;;5039177;28;20025;-65
2021/03/29 04:57:03;;;;;;;18.38;4.40;;;;;;;;;;5041645;28;20029;-66
2021/03/29 04:59:29;;;;;;;19.95;4.80;;;;;;;;;;5048903;28;20017;-66
2021/03/29 05:01:54;;;;;;;19.55;4.65;;;;;;;;;;5040285;28;20036;-65
2021/03/29 05:04:19;;;;;;;16.95;4.45;;;;;;;;;;5038611;28;20075;-65
2021/03/29 05:06:44;;;;;;;15.68;5.07;;;;;;;;;;5035244;28;20032;-65
2021/03/29 05:09:10;;;;;;;19.30;3.92;;;;;;;;;;5036155;28;20033;-65
2021/03/29 05:11:46;;;;;;;12.95;4.03;;;;;;;;;;5047417;28;20439;-66
2021/03/29 05:14:12;;;;;;;14.32;5.28;;;;;;;;;;5042954;28;20552;-66
2021/03/29 05:16:37;;;;;;;17.55;4.68;;;;;;;;;;5032662;28;20117;-66
2021/03/29 05:19:03;;;;;;;21.65;5.07;;;;;;;;;;5030352;28;20324;-66
2021/03/29 05:21:28;;;;;;;25.10;4.80;;;;;;;;;;5033777;28;20022;-66
2021/03/29 05:23:53;;;;;;;24.47;4.57;;;;;;;;;;5028390;28;20025;-65
2021/03/29 05:26:18;;;;;;;18.45;5.57;;;;;;;;;;5030234;28;20364;-66
2021/03/29 05:28:43;;;;;;;21.00;5.30;;;;;;;;;;5031636;28;20653;-66
2021/03/29 05:31:08;;;;;;;12.20;4.13;;;;;;;;;;5037036;28;20340;-66
2021/03/29 05:33:34;;;;;;;15.25;3.83;;;;;;;;;;5040347;28;20647;-67
2021/03/29 05:35:59;;;;;;;18.88;5.00;;;;;;;;;;5032878;28;20095;-65
2021/03/29 05:38:24;;;;;;;20.90;5.65;;;;;;;;;;5041839;28;20106;-68
2021/03/29 05:40:50;;;;;;;13.68;4.35;;;;;;;;;;5045791;28;20107;-66
2021/03/29 05:43:15;;;;;;;17.63;4.47;;;;;;;;;;5046347;28;20392;-66
2021/03/29 05:45:43;;;;;;;22.60;4.93;;;;;;;;;;5051240;28;20095;-66
2021/03/29 05:48:09;;;;;;;14.80;4.85;;;;;;;;;;5047685;28;20338;-65
2021/03/29 05:50:34;;;;;;;21.17;4.22;;;;;;;;;;5049979;28;20017;-66
2021/03/29 05:52:59;;;;;;;19.27;4.53;;;;;;;;;;5038847;28;20026;-66
2021/03/29 05:55:30;;;;;;;16.63;4.45;;;;;;;;;;5042820;28;20062;-66
2021/03/29 06:00:36;;;;;;;22.35;4.43;;;;;;;;;;5051947;28;20028;-66
2021/03/29 06:03:20;;;;;;;17.20;3.55;;;;;;;;;;5049031;28;20048;-66
2021/03/29 06:05:45;;;;;;;15.00;4.30;;;;;;;;;;5048063;28;20509;-66
2021/03/29 06:08:11;;;;;;;16.90;4.90;;;;;;;;;;5041149;28;20113;-66
2021/03/29 06:10:36;;;;;;;14.95;4.03;;;;;;;;;;5049583;28;20052;-66
2021/03/29 06:13:13;;;;;;;14.65;4.35;;;;;;;;;;5051094;28;20055;-67
2021/03/29 06:15:38;;;;;;;11.73;3.90;;;;;;;;;;5047226;28;20112;-66
2021/03/29 06:18:11;;;;;;;15.53;4.40;;;;;;;;;;5043726;28;20111;-66
2021/03/29 06:20:55;;;;;;;15.73;3.55;;;;;;;;;;5047469;28;20700;-67
2021/03/29 06:23:20;;;;;;;12.95;4.78;;;;;;;;;;5040373;28;20520;-66
2021/03/29 06:25:46;;;;;;;13.30;2.23;;;;;;;;;;5047189;28;20037;-67
2021/03/29 06:28:22;;;;;;;24.60;4.53;;;;;;;;;;5049382;28;20322;-66
2021/03/29 06:30:47;;;;;;;17.42;4.35;;;;;;;;;;5050068;28;20074;-65
2021/03/29 06:33:14;;;;;;;8.65;3.35;;;;;;;;;;5040522;28;20024;-66
2021/03/29 06:35:49;;;;;;;17.92;3.38;;;;;;;;;;5043289;28;20032;-66
2021/03/29 06:38:16;;;;;;;18.35;4.57;;;;;;;;;;5043410;28;20063;-65
2021/03/29 06:40:45;;;;;;;16.63;3.58;;;;;;;;;;5044278;28;20064;-67
2021/03/29 06:43:16;;;;;;;14.97;3.37;;;;;;;;;;5042165;28;20013;-66
2021/03/29 06:45:41;;;;;;;24.63;4.88;;;;;;;;;;5038268;28;20446;-67
2021/03/29 06:48:17;;;;;;;16.83;4.32;;;;;;;;;;5046328;28;20108;-68
2021/03/29 06:50:42;;;;;;;15.40;4.40;;;;;;;;;;5035693;28;20083;-66
2021/03/29 06:53:07;;;;;;;17.80;3.80;;;;;;;;;;5043426;28;20334;-66
2021/03/29 06:55:32;;;;;;;16.30;4.45;;;;;;;;;;5031315;28;20288;-67
2021/03/29 06:58:10;;;;;;;17.87;3.53;;;;;;;;;;5043709;28;20035;-65
2021/03/29 07:00:36;;;;;;;19.90;4.25;;;;;;;;;;5031063;28;20291;-67
2021/03/29 07:03:06;;;;;;;15.40;4.03;;;;;;;;;;5040542;28;20072;-67
2021/03/29 07:05:31;;;;;;;13.93;4.07;;;;;;;;;;5045727;28;20032;-67
2021/03/29 07:08:01;;;;;;;15.07;3.97;;;;;;;;;;5050069;28;20025;-66
2021/03/29 07:10:26;;;;;;;15.73;4.07;;;;;;;;;;5046259;28;20056;-66
2021/03/29 07:12:53;;;;;;;11.77;4.47;;;;;;;;;;5036850;28;20434;-66
2021/03/29 07:15:18;;;;;;;15.50;3.72;;;;;;;;;;5040843;28;20083;-67
2021/03/29 07:17:44;;;;;;;14.18;4.43;;;;;;;;;;5034672;28;20017;-66
2021/03/29 07:20:11;;;;;;;16.38;3.95;;;;;;;;;;5044980;28;20024;-65
2021/03/29 07:22:37;;;;;;;14.52;3.30;;;;;;;;;;5041633;28;20297;-67
2021/03/29 07:25:07;;;;;;;15.90;3.88;;;;;;;;;;5031277;28;20579;-67
2021/03/29 07:27:35;;;;;;;14.00;3.70;;;;;;;;;;5049604;28;20041;-67
2021/03/29 07:30:00;;;;;;;6.15;2.70;;;;;;;;;;5045152;28;20184;-66
2021/03/29 07:32:29;;;;;;;12.95;2.88;;;;;;;;;;5042057;28;20024;-67
2021/03/29 07:34:55;;;;;;;11.45;4.18;;;;;;;;;;5050451;28;20029;-67
2021/03/29 07:37:26;;;;;;;15.55;3.85;;;;;;;;;;5050012;28;20100;-67
2021/03/29 07:39:51;;;;;;;11.73;3.50;;;;;;;;;;5031544;28;20068;-66
2021/03/29 07:42:22;;;;;;;13.73;3.75;;;;;;;;;;5036674;28;20045;-66
2021/03/29 07:44:54;;;;;;;14.77;3.28;;;;;;;;;;5049676;28;20028;-67
2021/03/29 07:47:39;;;;;;;9.60;3.85;;;;;;;;;;5050100;28;20028;-69
2021/03/29 07:50:06;;;;;;;12.45;3.55;;;;;;;;;;5050543;28;20068;-68
2021/03/29 07:52:33;;;;;;;15.23;2.95;;;;;;;;;;5042735;28;20017;-69
2021/03/29 07:54:59;;;;;;;9.05;2.30;;;;;;;;;;5030020;28;20052;-67
2021/03/29 07:57:43;;;;;;;15.60;4.50;;;;;;;;;;5033927;28;20524;-67
2021/03/29 08:00:09;;;;;;;16.65;3.70;;;;;;;;;;5038695;28;20020;-67
2021/03/29 08:02:34;;;;;;;12.75;3.08;;;;;;;;;;5042212;28;20017;-67
2021/03/29 08:05:00;;;;;;;13.73;2.15;;;;;;;;;;5050255;28;20096;-67
2021/03/29 08:07:39;;;;;;;10.85;3.22;;;;;;;;;;5045151;28;20021;-67
2021/03/29 08:10:05;;;;;;;16.45;4.00;;;;;;;;;;5034964;28;20021;-67
2021/03/29 08:12:31;;;;;;;10.02;3.35;;;;;;;;;;5033618;28;20044;-67
2021/03/29 08:14:57;;;;;;;15.38;3.08;;;;;;;;;;5038733;28;20077;-69
2021/03/29 08:17:53;;;;;;;13.75;3.60;;;;;;;;;;5040930;28;20308;-68
2021/03/29 08:20:52;;;;;;;16.95;4.25;;;;;;;;;;5049693;28;20025;-68
2021/03/29 08:23:31;;;;;;;16.20;3.67;;;;;;;;;;5047154;28;20056;-67
2021/03/29 08:26:15;;;;;;;10.80;3.33;;;;;;;;;;5031710;28;20037;-67
2021/03/29 08:28:59;;;;;;;16.65;3.10;;;;;;;;;;5042433;28;20474;-67
2021/03/29 08:31:43;;;;;;;16.80;3.35;;;;;;;;;;5037003;28;20036;-69
2021/03/29 08:34:08;;;;;;;11.55;3.75;;;;;;;;;;5036603;28;20377;-69
2021/03/29 08:36:37;;;;;;;10.23;2.50;;;;;;;;;;5049968;28;20021;-67
2021/03/29 08:39:03;;;;;;;16.30;3.45;;;;;;;;;;5034677;28;20279;-66
2021/03/29 08:41:28;;;;;;;16.50;3.28;;;;;;;;;;5030736;28;20029;-68
2021/03/29 08:43:53;;;;;;;12.27;3.45;;;;;;;;;;5034909;28;20014;-68
2021/03/29 08:46:18;;;;;;;9.50;3.42;;;;;;;;;;5041707;28;20388;-66
2021/03/29 08:48:44;;;;;;;18.58;3.67;;;;;;;;;;5045145;28;20013;-69
2021/03/29 08:51:19;;;;;;;11.85;4.53;;;;;;;;;;5037690;28;20032;-67
2021/03/29 08:53:44;;;;;;;18.40;3.85;;;;;;;;;;5049466;28;20029;-67
2021/03/29 08:56:10;;;;;;;14.00;3.30;;;;;;;;;;5050020;28;20104;-66
2021/03/29 08:58:36;;;;;;;10.20;3.10;;;;;;;;;;5049833;28;20042;-68
2021/03/29 09:01:01;;;;;;;14.05;3.78;;;;;;;;;;5050059;28;20715;-67
2021/03/29 09:03:27;;;;;;;14.90;3.23;;;;;;;;;;5050390;28;20021;-66
2021/03/29 09:05:52;;;;;;;8.57;3.00;;;;;;;;;;5049182;28;20271;-66
2021/03/29 09:08:18;;;;;;;12.63;3.87;;;;;;;;;;5050040;28;20260;-66
2021/03/29 09:10:44;;;;;;;15.23;4.25;;;;;;;;;;5047593;28;20059;-67
2021/03/29 09:13:10;;;;;;;8.98;2.70;;;;;;;;;;5052501;28;20056;-66
2021/03/29 09:15:36;;;;;;;14.20;4.25;;;;;;;;;;5040361;28;20299;-65
2021/03/29 09:18:03;;;;;;;16.35;3.75;;;;;;;;;;5042230;28;20276;-66
2021/03/29 09:20:28;;;;;;;11.75;3.35;;;;;;;;;;5048122;28;20029;-67
2021/03/29 09:22:54;;;;;;;11.80;3.70;;;;;;;;;;5034489;28;20043;-66
2021/03/29 09:25:27;;;;;;;8.30;2.80;;;;;;;;;;5040521;28;20060;-66
2021/03/29 09:28:13;;;;;;;13.00;3.30;;;;;;;;;;5043654;28;20021;-67
2021/03/29 09:30:38;;;;;;;12.65;3.53;;;;;;;;;;5033394;28;20056;-67
2021/03/29 09:33:04;;;;;;;19.60;4.80;;;;;;;;;;5034360;28;20064;-66
2021/03/29 09:35:29;;;;;;;15.70;3.20;;;;;;;;;;5033876;28;20109;-67
2021/03/29 09:37:54;;;;;;;4.03;1.75;;;;;;;;;;5043467;28;20026;-67
2021/03/29 09:40:19;;;;;;;13.13;3.85;;;;;;;;;;5040533;28;20033;-67
2021/03/29 09:42:46;;;;;;;4.90;2.22;;;;;;;;;;5051733;28;20017;-66
2021/03/29 09:45:13;;;;;;;14.07;3.95;;;;;;;;;;5052379;28;20078;-67
2021/03/29 09:47:38;;;;;;;6.60;2.35;;;;;;;;;;5051325;28;20021;-67
2021/03/29 09:50:10;;;;;;;6.93;2.50;;;;;;;;;;5048638;28;20028;-66
2021/03/29 09:52:42;;;;;;;9.25;2.38;;;;;;;;;;5041354;28;20025;-67
2021/03/29 09:55:08;;;;;;;12.32;3.70;;;;;;;;;;5049383;28;20044;-66
2021/03/29 09:57:41;;;;;;;12.20;2.20;;;;;;;;;;5051329;28;20071;-68
2021/03/29 10:00:13;;;;;;;10.45;2.55;;;;;;;;;;5051474;28;20048;-66
2021/03/29 10:02:39;;;;;;;6.63;1.80;;;;;;;;;;5036759;28;20424;-66
2021/03/29 10:05:05;;;;;;;9.25;1.65;;;;;;;;;;5035755;28;20100;-69
2021/03/29 10:07:30;;;;;;;12.63;1.73;;;;;;;;;;5032630;28;20029;-66
2021/03/29 10:09:59;;;;;;;8.63;1.83;;;;;;;;;;5044914;28;20032;-66
2021/03/29 10:12:26;;;;;;;10.60;1.27;;;;;;;;;;5050137;28;20360;-66
2021/03/29 10:15:02;;;;;;;10.25;1.73;;;;;;;;;;5042630;28;20029;-67
2021/03/29 10:17:28;;;;;;;5.63;1.52;;;;;;;;;;5038773;28;20029;-66
2021/03/29 10:20:02;;;;;;;6.45;1.20;;;;;;;;;;5049235;28;20082;-67
2021/03/29 10:22:27;;;;;;;12.85;1.58;;;;;;;;;;5031954;28;20021;-66
2021/03/29 10:25:00;;;;;;;6.27;1.63;;;;;;;;;;5032625;28;20048;-67
2021/03/29 10:27:36;;;;;;;12.20;1.83;;;;;;;;;;5032533;28;20752;-67
2021/03/29 10:30:02;;;;;;;21.67;2.88;;;;;;;;;;5048760;28;20029;-67
2021/03/29 10:32:27;;;;;;;11.18;1.60;;;;;;;;;;5036895;28;20103;-68
2021/03/29 10:34:53;;;;;;;12.60;3.23;;;;;;;;;;5046858;28;20123;-68
2021/03/29 10:37:20;;;;;;;5.13;1.40;;;;;;;;;;5050146;28;20267;-68
2021/03/29 10:39:45;;;;;;;11.07;2.88;;;;;;;;;;5037221;28;20025;-66
2021/03/29 10:42:11;;;;;;;5.80;1.80;;;;;;;;;;5032223;28;20371;-67
2021/03/29 10:44:36;;;;;;;8.25;1.83;;;;;;;;;;5043466;28;20035;-68
2021/03/29 10:47:02;;;;;;;5.45;0.80;;;;;;;;;;5042620;28;20029;-67
2021/03/29 10:49:27;;;;;;;4.20;1.23;;;;;;;;;;5031484;28;20036;-68
2021/03/29 10:51:52;;;;;;;4.43;1.47;;;;;;;;;;5044971;28;20037;-67
2021/03/29 10:54:17;;;;;;;8.23;1.50;;;;;;;;;;5032226;28;20284;-67
2021/03/29 10:56:43;;;;;;;8.40;1.43;;;;;;;;;;5032890;28;20272;-67
2021/03/29 10:59:08;;;;;;;15.43;1.87;;;;;;;;;;5043225;28;20345;-67
2021/03/29 11:01:33;;;;;;;13.13;1.55;;;;;;;;;;5044332;28;20397;-67
2021/03/29 11:03:58;;;;;;;5.30;1.37;;;;;;;;;;5051209;28;20085;-68
2021/03/29 11:06:23;;;;;;;8.33;1.23;;;;;;;;;;5051661;28;20355;-67
2021/03/29 11:08:49;;;;;;;9.40;1.70;;;;;;;;;;5050960;28;20629;-68
2021/03/29 11:11:14;;;;;;;4.72;1.10;;;;;;;;;;5033404;28;20025;-68
2021/03/29 11:13:39;;;;;;;2.50;0.95;;;;;;;;;;5031249;28;20026;-68
2021/03/29 11:16:07;;;;;;;3.20;1.10;;;;;;;;;;5044282;28;20025;-67
2021/03/29 11:18:33;;;;;;;4.05;1.27;;;;;;;;;;5047667;28;20815;-68
2021/03/29 11:20:58;;;;;;;13.57;1.60;;;;;;;;;;5043264;28;20029;-68
2021/03/29 11:23:25;;;;;;;6.90;1.73;;;;;;;;;;5044858;28;20094;-68
2021/03/29 11:25:51;;;;;;;2.80;0.70;;;;;;;;;;5051520;28;20077;-68
2021/03/29 11:28:16;;;;;;;7.18;1.55;;;;;;;;;;5050248;28;20017;-66
2021/03/29 11:30:41;;;;;;;4.93;1.30;;;;;;;;;;5032384;28;20040;-67
2021/03/29 11:33:06;;;;;;;7.53;1.90;;;;;;;;;;5040918;28;20268;-68
2021/03/29 11:35:31;;;;;;;7.37;2.47;;;;;;;;;;5030267;28;20264;-69
2021/03/29 11:37:57;;;;;;;3.38;1.02;;;;;;;;;;5036293;28;20294;-67
2021/03/29 11:40:22;;;;;;;7.35;1.45;;;;;;;;;;5035954;28;20189;-67
2021/03/29 11:42:47;;;;;;;5.95;1.20;;;;;;;;;;5043256;28;20049;-67
2021/03/29 11:45:12;;;;;;;4.72;1.48;;;;;;;;;;5047820;28;20017;-67
2021/03/29 11:47:39;;;;;;;4.72;0.88;;;;;;;;;;5036939;28;20036;-67
2021/03/29 11:50:09;;;;;;;7.88;1.40;;;;;;;;;;5041739;28;20024;-67
2021/03/29 11:52:34;;;;;;;5.85;1.27;;;;;;;;;;5051268;28;20166;-67
2021/03/29 11:55:00;;;;;;;8.63;1.15;;;;;;;;;;5050299;28;20112;-67
2021/03/29 11:57:25;;;;;;;3.07;1.00;;;;;;;;;;5050495;28;20032;-67
2021/03/29 11:59:53;;;;;;;5.30;1.10;;;;;;;;;;5044932;28;20268;-67
2021/03/29 12:02:27;;;;;;;11.40;1.77;;;;;;;;;;5034354;28;20691;-66
2021/03/29 12:05:05;;;;;;;7.93;1.55;;;;;;;;;;5040234;28;20493;-67
2021/03/29 12:07:43;;;;;;;10.55;1.23;;;;;;;;;;5045024;28;20060;-67
2021/03/29 12:12:53;;;;;;;5.13;1.45;;;;;;;;;;5039148;28;20024;-67
2021/03/29 12:15:19;;;;;;;6.55;1.90;;;;;;;;;;5039305;28;20017;-68
2021/03/29 12:17:48;;;;;;;7.78;2.15;;;;;;;;;;5035494;28;20140;-67
2021/03/29 12:20:13;;;;;;;12.48;2.05;;;;;;;;;;5035213;28;20013;-67
2021/03/29 12:22:40;;;;;;;7.78;1.80;;;;;;;;;;5038949;28;20044;-67
2021/03/29 12:25:05;;;;;;;7.30;1.52;;;;;;;;;;5034373;28;20017;-67
2021/03/29 12:27:31;;;;;;;8.48;1.80;;;;;;;;;;5044975;28;20359;-67
2021/03/29 12:30:02;;;;;;;10.20;1.83;;;;;;;;;;5030479;28;20052;-67
2021/03/29 12:32:27;;;;;;;5.97;1.85;;;;;;;;;;5036815;28;20477;-67
2021/03/29 12:34:58;;;;;;;11.10;1.92;;;;;;;;;;5044050;28;20032;-67
2021/03/29 12:37:26;;;;;;;;;;;;;;;;;;5034494;28;20069;-67
2021/03/29 12:40:10;;;;;;;3.38;1.10;;;;;;;;;;5043933;28;19912;-67
2021/03/29 12:42:48;;;;;;;6.47;1.65;;;;;;;;;;5039556;28;20032;-68
2021/03/29 12:45:14;;;;;;;7.47;1.60;;;;;;;;;;5049702;28;20095;-67
2021/03/29 12:47:42;;;;;;;4.15;0.88;;;;;;;;;;5053853;28;20473;-66
2021/03/29 12:50:11;;;;;;;8.38;1.73;;;;;;;;;;5051139;28;20043;-67
2021/03/29 12:52:37;;;;;;;6.55;1.58;;;;;;;;;;5047689;28;20347;-67
2021/03/29 12:55:03;;;;;;;9.68;2.63;;;;;;;;;;5053533;28;20123;-67
2021/03/29 12:57:28;;;;;;;6.78;1.52;;;;;;;;;;5039187;28;20022;-67
2021/03/29 12:59:53;;;;;;;5.70;1.92;;;;;;;;;;5053639;28;20063;-67
2021/03/29 13:02:20;;;;;;;9.60;1.90;;;;;;;;;;5053046;28;20016;-67
2021/03/29 13:04:47;;;;;;;3.85;1.23;;;;;;;;;;5054010;28;20021;-68
2021/03/29 13:07:27;;;;;;;3.97;1.50;;;;;;;;;;5053237;28;20029;-67
2021/03/29 13:10:01;;;;;;;7.28;1.45;;;;;;;;;;5049580;28;20382;-67
2021/03/29 13:12:26;;;;;;;6.93;1.60;;;;;;;;;;5050852;28;20045;-67
2021/03/29 13:15:00;;;;;;;2.13;1.17;;;;;;;;;;5037809;28;20061;-67
2021/03/29 13:17:26;;;;;;;6.97;1.95;;;;;;;;;;5040831;28;20017;-67
2021/03/29 13:19:51;;;;;;;8.35;1.92;;;;;;;;;;5046932;28;20411;-67
2021/03/29 13:22:16;;;;;;;5.70;2.22;;;;;;;;;;5043222;28;20447;-68
2021/03/29 13:24:42;;;;;;;6.05;1.77;;;;;;;;;;5051534;28;20021;-67
2021/03/29 13:27:07;;;;;;;10.25;2.13;;;;;;;;;;5052711;28;20032;-67
2021/03/29 13:29:33;;;;;;;4.63;1.48;;;;;;;;;;5053426;28;20305;-67
2021/03/29 13:31:58;;;;;;;5.23;1.43;;;;;;;;;;5049655;28;20227;-66
2021/03/29 13:34:23;;;;;;;5.50;2.15;;;;;;;;;;5042100;28;20283;-67
2021/03/29 13:36:48;;;;;;;5.67;1.53;;;;;;;;;;5040298;28;20096;-67
2021/03/29 13:39:14;;;;;;;12.50;1.93;;;;;;;;;;5032975;28;20478;-67
2021/03/29 13:41:39;;;;;;;5.57;1.80;;;;;;;;;;5050376;28;20268;-67
2021/03/29 13:44:07;;;;;;;9.90;1.70;;;;;;;;;;5053145;28;20029;-67
2021/03/29 13:46:33;;;;;;;7.32;1.70;;;;;;;;;;5051625;28;20048;-67
2021/03/29 13:48:59;;;;;;;3.03;1.27;;;;;;;;;;5052857;28;20147;-67
2021/03/29 13:51:24;;;;;;;10.55;1.75;;;;;;;;;;5048860;28;20259;-67
2021/03/29 13:53:55;;;;;;;4.57;1.85;;;;;;;;;;5032396;28;20034;-67
2021/03/29 13:56:21;;;;;;;10.23;1.70;;;;;;;;;;5046570;28;20350;-66
2021/03/29 13:58:46;;;;;;;4.47;1.70;;;;;;;;;;5051880;28;20087;-66
2021/03/29 14:01:13;;;;;;;10.38;1.63;;;;;;;;;;5052862;28;20096;-68
2021/03/29 14:03:38;;;;;;;6.60;1.83;;;;;;;;;;5052782;28;20021;-67
2021/03/29 14:06:04;;;;;;;6.00;1.60;;;;;;;;;;5051613;28;20021;-68
2021/03/29 14:08:29;;;;;;;8.98;1.50;;;;;;;;;;5052710;28;20033;-68
2021/03/29 14:10:54;;;;;;;6.90;1.70;;;;;;;;;;5036049;28;20053;-68
2021/03/29 14:13:19;;;;;;;7.90;1.63;;;;;;;;;;5046628;28;20259;-68
2021/03/29 14:15:45;;;;;;;5.47;2.05;;;;;;;;;;5041857;28;20783;-67
2021/03/29 14:18:11;;;;;;;4.65;1.60;;;;;;;;;;5038226;28;20474;-67
2021/03/29 14:20:36;;;;;;;9.20;2.08;;;;;;;;;;5042476;28;20016;-67
2021/03/29 14:23:01;;;;;;;7.50;1.63;;;;;;;;;;5046280;28;20009;-67
2021/03/29 14:25:27;;;;;;;5.22;1.25;;;;;;;;;;5052512;28;20116;-67
2021/03/29 14:27:53;;;;;;;11.52;2.78;;;;;;;;;;5036326;28;20386;-67
2021/03/29 14:30:19;;;;;;;9.27;1.80;;;;;;;;;;5037569;28;20386;-67
2021/03/29 14:32:44;;;;;;;5.43;1.75;;;;;;;;;;5043601;28;20047;-67
2021/03/29 14:40:20;;;;;;;11.13;2.30;;;;;;;;;;5051833;22;20036;-64
2021/03/29 14:42:49;;;;;;;9.30;2.13;;;;;;;;;;5050413;28;20095;-63
2021/03/29 14:45:14;;;;;;;6.55;1.45;;;;;;;;;;5051670;28;20028;-63
2021/03/29 14:47:39;;;;;;;5.70;1.80;;;;;;;;;;5049346;28;20025;-63